Time;durP1;ratioP1;P1;durP2;ratioP2;P2;SDS_P1;SDS_P2;PMS_P1;PMS_P2;Temp;Humidity;BMP_temperature;BMP_pressure;BME280_temperature;BME280_humidity;BME280_pressure;Samples;Min_cycle;Max_cycle;Signal;HPM_P1;HPM_P2
2022/03/05 14:28:18;;;;;;;6.72;3.63;;;;;;;3.00;54.21;98877.16;3172121;23;20032;-77
2022/03/05 14:29:34;;;;;;;7.25;4.18;;;;;;;2.97;55.30;98878.88;3206422;23;20412;-77
2022/03/05 14:30:50;;;;;;;7.13;4.05;;;;;;;2.99;55.53;98876.28;3205398;23;20079;-78
2022/03/05 14:32:07;;;;;;;18.00;8.70;;;;;;;3.03;55.10;98877.19;3207120;23;20066;-78
2022/03/05 14:33:23;;;;;;;12.27;5.70;;;;;;;3.05;55.37;98875.47;3206954;23;20111;-82
2022/03/05 14:34:39;;;;;;;6.63;4.03;;;;;;;3.03;54.44;98872.00;3206945;23;20047;-78
2022/03/05 14:35:55;;;;;;;7.18;4.20;;;;;;;3.02;54.78;98866.00;3207187;23;20493;-78
2022/03/05 14:37:11;;;;;;;10.13;4.50;;;;;;;3.01;54.79;98866.84;3207268;23;20495;-79
2022/03/05 14:38:26;;;;;;;7.68;3.88;;;;;;;2.99;54.67;98867.66;3206878;23;20312;-84
2022/03/05 14:39:42;;;;;;;7.07;3.90;;;;;;;2.91;54.48;98863.28;3206950;23;20028;-79
2022/03/05 14:40:58;;;;;;;7.38;4.07;;;;;;;2.86;55.37;98864.97;3206998;23;20031;-78
2022/03/05 14:42:13;;;;;;;7.35;4.47;;;;;;;2.89;56.02;98867.56;3206911;23;20024;-79
2022/03/05 14:43:30;;;;;;;10.55;4.05;;;;;;;2.87;54.69;98865.84;3207093;23;20075;-79
2022/03/05 14:44:46;;;;;;;7.68;4.10;;;;;;;2.86;54.06;98859.78;3206056;23;20320;-79
2022/03/05 14:46:01;;;;;;;31.25;5.32;;;;;;;2.79;55.32;98871.78;3206485;23;20305;-79
2022/03/05 14:47:18;;;;;;;7.90;3.83;;;;;;;2.78;55.07;98864.00;3206851;23;20357;-79
2022/03/05 14:48:33;;;;;;;7.32;4.18;;;;;;;2.77;55.49;98870.03;3200210;23;20021;-79
2022/03/05 14:49:49;;;;;;;8.02;4.18;;;;;;;2.76;55.08;98864.00;3207165;23;20025;-78
2022/03/05 14:51:05;;;;;;;7.65;4.10;;;;;;;2.74;55.24;98870.88;3206682;23;20028;-77
2022/03/05 14:52:22;;;;;;;6.70;3.53;;;;;;;2.65;54.63;98866.50;3207185;23;20024;-78
2022/03/05 14:53:37;;;;;;;6.43;3.88;;;;;;;2.59;55.22;98869.00;3207395;23;20020;-79
2022/03/05 14:54:53;;;;;;;6.82;3.83;;;;;;;2.54;54.73;98871.53;3207537;23;20047;-79
2022/03/05 14:56:09;;;;;;;8.18;4.40;;;;;;;2.52;55.67;98867.19;3205903;23;20016;-78
2022/03/05 14:57:24;;;;;;;7.88;4.07;;;;;;;2.54;55.46;98868.94;3206586;23;20031;-77
2022/03/05 14:58:40;;;;;;;9.60;4.60;;;;;;;2.56;56.38;98865.50;3205535;23;20039;-77
2022/03/05 14:59:56;;;;;;;8.90;4.50;;;;;;;2.59;56.41;98871.56;3204611;23;20059;-77
2022/03/05 15:01:11;;;;;;;6.43;4.05;;;;;;;2.61;56.70;98862.13;3206430;23;20020;-78
2022/03/05 15:02:27;;;;;;;10.00;5.35;;;;;;;2.61;55.77;98858.69;3206650;23;20791;-81
2022/03/05 15:03:42;;;;;;;8.70;4.53;;;;;;;2.57;55.49;98862.94;3206697;23;20048;-78
2022/03/05 15:04:58;;;;;;;7.90;4.03;;;;;;;2.57;56.25;98856.88;3206940;23;20475;-78
2022/03/05 15:06:15;;;;;;;8.35;4.35;;;;;;;2.55;55.94;98862.06;3207280;23;20350;-79
2022/03/05 15:07:31;;;;;;;7.38;4.25;;;;;;;2.57;56.29;98862.94;3206668;23;20020;-77
2022/03/05 15:08:46;;;;;;;11.07;5.20;;;;;;;2.57;56.48;98859.47;3206842;23;20715;-77
2022/03/05 15:10:03;;;;;;;10.27;5.70;;;;;;;2.60;55.86;98859.53;3206562;23;20020;-79
2022/03/05 15:11:18;;;;;;;16.40;6.90;;;;;;;2.60;56.80;98862.97;3190377;23;20475;-80
2022/03/05 15:12:34;;;;;;;16.63;7.63;;;;;;;2.60;56.97;98857.78;3196148;23;20122;-76
2022/03/05 15:13:50;;;;;;;31.35;11.50;;;;;;;2.62;56.12;98855.25;3206575;23;20102;-77
2022/03/05 15:15:06;;;;;;;36.80;12.75;;;;;;;2.60;55.79;98852.63;3206640;23;20017;-77
2022/03/05 15:16:22;;;;;;;35.30;12.82;;;;;;;2.60;55.55;98862.13;3206828;23;20035;-77
2022/03/05 15:17:38;;;;;;;25.17;10.77;;;;;;;2.60;56.03;98856.94;3206672;23;20355;-77
2022/03/05 15:18:53;;;;;;;20.95;9.57;;;;;;;2.60;55.79;98859.53;3206694;23;20716;-77
2022/03/05 15:20:10;;;;;;;21.23;10.05;;;;;;;2.60;56.21;98862.13;3206477;23;20017;-78
2022/03/05 15:21:26;;;;;;;19.25;8.75;;;;;;;2.60;55.17;98860.38;3206568;23;20056;-78
2022/03/05 15:22:42;;;;;;;20.55;9.48;;;;;;;2.58;56.50;98862.09;3205863;23;20036;-78
2022/03/05 15:23:57;;;;;;;24.02;11.15;;;;;;;2.54;56.03;98855.16;3206776;23;20017;-79
2022/03/05 15:25:13;;;;;;;25.33;12.30;;;;;;;2.53;55.94;98853.44;3190466;23;20020;-77
2022/03/05 15:26:29;;;;;;;21.80;10.90;;;;;;;2.51;54.94;98858.56;3196957;23;20849;-78
2022/03/05 15:27:44;;;;;;;16.45;8.93;;;;;;;2.50;56.00;98850.78;3206941;23;20028;-77
2022/03/05 15:29:00;;;;;;;17.08;8.38;;;;;;;2.51;55.23;98855.97;3206162;23;20052;-77
2022/03/05 15:30:16;;;;;;;14.05;7.53;;;;;;;2.47;56.15;98855.94;3206257;23;20013;-77
2022/03/05 15:31:32;;;;;;;13.93;6.75;;;;;;;2.48;55.59;98857.66;3206437;23;20028;-79
2022/03/05 15:32:47;;;;;;;13.85;7.10;;;;;;;2.43;55.50;98855.00;3206820;23;20477;-77
2022/03/05 15:34:03;;;;;;;10.27;5.82;;;;;;;2.42;55.38;98849.84;3206957;23;20020;-77
2022/03/05 15:35:19;;;;;;;10.43;5.82;;;;;;;2.41;55.65;98854.13;3206379;23;20021;-77
2022/03/05 15:36:36;;;;;;;10.82;5.45;;;;;;;2.42;55.55;98853.28;3206137;23;20020;-77
2022/03/05 15:37:52;;;;;;;10.88;5.93;;;;;;;2.46;55.55;98861.94;3206570;23;20467;-76
2022/03/05 15:39:08;;;;;;;9.50;5.38;;;;;;;2.48;55.61;98849.91;3206344;23;20016;-82
2022/03/05 15:40:24;;;;;;;9.30;4.78;;;;;;;2.43;55.30;98854.16;3206803;23;20024;-82
2022/03/05 15:41:40;;;;;;;9.85;4.97;;;;;;;2.39;56.10;98848.97;3206525;23;20042;-82
2022/03/05 15:42:55;;;;;;;8.73;4.60;;;;;;;2.37;56.46;98852.38;3206487;23;20090;-83
2022/03/05 15:44:11;;;;;;;12.95;5.18;;;;;;;2.34;56.40;98854.94;3206701;23;20462;-83
2022/03/05 15:45:27;;;;;;;11.52;5.22;;;;;;;2.32;55.34;98847.16;3206318;23;20055;-85
2022/03/05 15:46:42;;;;;;;7.20;4.53;;;;;;;2.31;56.32;98852.31;3206685;23;20073;-81
2022/03/05 15:47:58;;;;;;;9.45;5.15;;;;;;;2.28;56.03;98853.13;3206632;23;20071;-83
2022/03/05 15:49:14;;;;;;;10.25;5.70;;;;;;;2.30;56.06;98856.59;3206934;23;20074;-82
2022/03/05 15:50:29;;;;;;;11.85;5.65;;;;;;;2.32;55.90;98856.63;3206624;23;20453;-82
2022/03/05 15:51:45;;;;;;;9.25;5.15;;;;;;;2.31;56.39;98855.75;3206456;23;20096;-81
2022/03/05 15:53:01;;;;;;;10.25;6.00;;;;;;;2.33;56.44;98854.03;3206765;23;20043;-85
2022/03/05 15:54:17;;;;;;;11.23;6.45;;;;;;;2.34;56.08;98849.75;3206957;23;20024;-82
2022/03/05 15:55:33;;;;;;;9.57;5.65;;;;;;;2.34;56.27;98853.19;3206735;23;20130;-86
2022/03/05 15:56:48;;;;;;;10.10;5.50;;;;;;;2.33;56.37;98850.59;3206734;23;20090;-82
2022/03/05 15:58:04;;;;;;;8.95;5.45;;;;;;;2.33;56.47;98848.03;3206302;23;20016;-82
2022/03/05 15:59:21;;;;;;;7.20;4.97;;;;;;;2.26;55.86;98844.50;3206201;23;20063;-81
2022/03/05 16:00:37;;;;;;;9.82;5.50;;;;;;;2.21;55.86;98846.13;3206604;23;20443;-82
2022/03/05 16:01:52;;;;;;;7.85;5.20;;;;;;;2.20;56.07;98849.56;3205613;23;20356;-83
2022/03/05 16:03:08;;;;;;;9.13;4.57;;;;;;;2.16;57.18;98843.50;3206841;23;20036;-82
2022/03/05 16:04:23;;;;;;;11.18;5.35;;;;;;;2.13;56.77;98853.78;3208132;23;20074;-82
2022/03/05 16:05:39;;;;;;;8.90;4.82;;;;;;;2.11;57.19;98852.91;3207901;23;20499;-82
2022/03/05 16:06:55;;;;;;;9.35;5.10;;;;;;;2.10;58.02;98852.06;3207858;23;20027;-82
2022/03/05 16:08:10;;;;;;;8.82;5.57;;;;;;;2.12;57.18;98854.66;3207600;23;20067;-81
2022/03/05 16:09:25;;;;;;;10.13;5.13;;;;;;;2.12;58.05;98849.47;3207626;23;20016;-84
2022/03/05 16:10:41;;;;;;;9.02;5.07;;;;;;;2.11;58.46;98848.63;3207783;23;20047;-82
2022/03/05 16:11:57;;;;;;;11.57;6.05;;;;;;;2.10;58.31;98852.06;3207799;23;20245;-81
2022/03/05 16:13:12;;;;;;;9.05;5.65;;;;;;;2.09;58.48;98852.03;3207513;23;20377;-83
2022/03/05 16:14:28;;;;;;;9.27;5.00;;;;;;;2.07;58.75;98848.56;3207573;23;20744;-83
2022/03/05 16:15:44;;;;;;;16.50;7.45;;;;;;;2.05;57.83;98855.44;3207657;23;20158;-81
2022/03/05 16:16:59;;;;;;;14.93;7.57;;;;;;;2.04;57.42;98849.38;3207834;23;20020;-82
2022/03/05 16:18:15;;;;;;;15.00;8.07;;;;;;;2.02;57.39;98848.50;3207836;23;20021;-82
2022/03/05 16:19:31;;;;;;;13.93;7.18;;;;;;;1.98;58.62;98849.31;3191102;23;20044;-82
2022/03/05 16:20:47;;;;;;;14.45;7.25;;;;;;;1.93;59.62;98846.66;3198055;23;20024;-83
2022/03/05 16:22:02;;;;;;;11.80;6.60;;;;;;;1.91;59.73;98845.78;3208012;23;20017;-84
2022/03/05 16:23:18;;;;;;;14.30;7.55;;;;;;;1.86;60.12;98852.59;3208047;23;20451;-82
2022/03/05 16:24:34;;;;;;;13.40;7.85;;;;;;;1.85;60.08;98843.09;3207710;23;20020;-82
2022/03/05 16:25:49;;;;;;;15.25;7.72;;;;;;;1.82;60.98;98848.22;3208110;23;20025;-83
2022/03/05 16:27:05;;;;;;;13.68;7.57;;;;;;;1.79;61.10;98850.78;3208234;23;20439;-83
2022/03/05 16:28:21;;;;;;;12.98;7.20;;;;;;;1.71;61.28;98844.63;3207946;23;20463;-83
2022/03/05 16:29:37;;;;;;;12.32;7.07;;;;;;;1.62;62.08;98847.94;3208418;23;20021;-82
2022/03/05 16:30:53;;;;;;;15.00;7.95;;;;;;;1.52;61.82;98854.69;3209735;23;20024;-86
2022/03/05 16:32:08;;;;;;;13.52;8.07;;;;;;;1.44;62.47;98853.69;3210561;23;20020;-83
2022/03/05 16:33:24;;;;;;;14.15;8.20;;;;;;;1.36;62.35;98857.03;3215603;23;20020;-83
2022/03/05 16:34:39;;;;;;;11.65;7.63;;;;;;;1.31;62.81;98860.38;3218637;23;20024;-83
2022/03/05 16:35:55;;;;;;;13.45;6.90;;;;;;;1.25;64.35;98859.41;3217428;23;20020;-85
2022/03/05 16:37:11;;;;;;;11.82;5.97;;;;;;;1.19;65.74;98861.03;3215519;23;20457;-81
2022/03/05 16:38:27;;;;;;;10.38;6.03;;;;;;;1.15;65.90;98856.69;3207743;23;20046;-84
2022/03/05 16:39:43;;;;;;;10.98;6.45;;;;;;;1.12;65.65;98857.50;3191261;23;20420;-81
2022/03/05 16:40:59;;;;;;;11.20;6.43;;;;;;;1.04;65.76;98859.94;3197374;23;20332;-81
2022/03/05 16:42:14;;;;;;;10.63;5.70;;;;;;;1.03;65.51;98857.34;3207643;23;20020;-83
2022/03/05 16:43:33;;;;;;;9.18;5.03;;;;;;;0.96;66.90;98857.22;3207439;23;20021;-83
2022/03/05 16:44:48;;;;;;;11.13;6.35;;;;;;;0.87;66.96;98862.25;3207234;23;20649;-82
2022/03/05 16:46:04;;;;;;;11.13;5.90;;;;;;;0.84;66.63;98859.63;3207686;23;20068;-83
2022/03/05 16:47:20;;;;;;;13.75;6.43;;;;;;;0.81;65.96;98862.09;3207353;23;20455;-81
2022/03/05 16:48:36;;;;;;;11.55;5.85;;;;;;;0.78;66.14;98856.91;3207621;23;20039;-82
2022/03/05 16:49:52;;;;;;;12.20;5.97;;;;;;;0.74;66.40;98870.59;3207149;23;20458;-83
2022/03/05 16:51:08;;;;;;;9.80;5.30;;;;;;;0.69;66.73;98867.91;3207780;23;20455;-82
2022/03/05 16:52:24;;;;;;;11.70;5.78;;;;;;;0.66;67.17;98866.16;3207332;23;20029;-83
2022/03/05 16:53:40;;;;;;;8.80;4.95;;;;;;;0.62;67.44;98876.34;3207389;23;20020;-81
2022/03/05 16:54:56;;;;;;;10.57;5.13;;;;;;;0.60;67.62;98868.63;3207432;23;20339;-79
2022/03/05 16:56:12;;;;;;;11.57;4.88;;;;;;;0.55;67.34;98868.53;3207672;23;20026;-77
2022/03/05 16:57:28;;;;;;;8.88;4.70;;;;;;;0.55;67.81;98868.53;3207465;23;20028;-78
2022/03/05 16:58:43;;;;;;;9.18;4.47;;;;;;;0.50;67.34;98872.72;3190010;23;20017;-77
2022/03/05 16:59:59;;;;;;;8.65;4.57;;;;;;;0.50;67.71;98879.56;3196671;23;20347;-77
2022/03/05 17:01:14;;;;;;;10.02;5.05;;;;;;;0.48;67.48;98876.97;3206772;23;20043;-77
2022/03/05 17:02:30;;;;;;;9.43;4.93;;;;;;;0.38;68.15;98877.63;3206761;23;20021;-77
2022/03/05 17:03:46;;;;;;;11.13;5.05;;;;;;;0.37;67.58;98881.06;3206709;23;20016;-77
2022/03/05 17:05:02;;;;;;;9.38;5.00;;;;;;;0.35;68.33;98873.28;3206584;23;20401;-78
2022/03/05 17:06:18;;;;;;;9.90;5.10;;;;;;;0.31;68.58;98873.19;3206883;23;20016;-78
2022/03/05 17:07:33;;;;;;;8.90;5.07;;;;;;;0.29;68.45;98878.31;3206609;23;20021;-77
2022/03/05 17:08:49;;;;;;;11.40;5.72;;;;;;;0.25;68.83;98872.22;3206818;23;20043;-77
2022/03/05 17:10:05;;;;;;;11.50;5.68;;;;;;;0.23;69.12;98878.19;3206817;23;20028;-77
2022/03/05 17:11:21;;;;;;;10.60;5.72;;;;;;;0.20;69.32;98880.69;3206821;23;20024;-77
2022/03/05 17:12:38;;;;;;;10.63;5.38;;;;;;;0.17;69.52;98878.06;3207680;23;20020;-77
2022/03/05 17:13:53;;;;;;;10.48;5.28;;;;;;;0.15;69.77;98884.91;3206060;23;20091;-78
2022/03/05 17:15:09;;;;;;;13.60;5.47;;;;;;;0.13;70.02;98880.56;3205915;23;20021;-77
2022/03/05 17:16:25;;;;;;;11.10;5.55;;;;;;;0.14;69.96;98889.16;3206219;23;20660;-76
2022/03/05 17:17:42;;;;;;;13.65;6.38;;;;;;;0.16;69.62;98881.47;3206295;23;20016;-77
2022/03/05 17:18:57;;;;;;;17.52;7.07;;;;;;;0.13;69.69;98874.56;3206367;23;20028;-80
2022/03/05 17:20:13;;;;;;;15.40;6.50;;;;;;;0.14;69.12;98871.13;3206384;23;20469;-78
2022/03/05 17:21:29;;;;;;;14.02;6.32;;;;;;;0.15;69.44;98865.16;3206149;23;20051;-79
2022/03/05 17:22:46;;;;;;;13.48;6.55;;;;;;;0.13;69.67;98867.69;3206607;23;20569;-77
2022/03/05 17:24:01;;;;;;;13.23;6.47;;;;;;;0.09;69.66;98873.59;3206848;23;20028;-78
2022/03/05 17:25:17;;;;;;;14.82;5.97;;;;;;;0.02;70.26;98876.03;3206466;23;20021;-77
2022/03/05 17:26:34;;;;;;;13.90;6.25;;;;;;;0.01;70.55;98882.91;3205883;23;20099;-76
2022/03/05 17:27:50;;;;;;;12.20;5.70;;;;;;;-0.03;70.79;98884.53;3206266;23;20029;-77
2022/03/05 17:29:06;;;;;;;16.88;6.20;;;;;;;-0.05;70.71;98880.16;3191075;23;20107;-76
2022/03/05 17:30:21;;;;;;;11.18;5.70;;;;;;;-0.06;70.66;98881.88;3191018;23;20029;-78
2022/03/05 17:31:37;;;;;;;11.70;5.75;;;;;;;-0.05;70.52;98885.31;3191178;23;20076;-76
2022/03/05 17:32:53;;;;;;;10.38;5.25;;;;;;;-0.11;71.13;98878.31;3190543;23;20068;-76
2022/03/05 17:34:10;;;;;;;9.73;5.13;;;;;;;-0.11;71.36;98882.63;3191341;23;20673;-76
2022/03/05 17:35:25;;;;;;;10.68;5.25;;;;;;;-0.11;71.35;98886.03;3191159;23;20032;-76
2022/03/05 17:36:41;;;;;;;11.13;5.70;;;;;;;-0.12;71.25;98886.03;3190871;23;20021;-76
2022/03/05 17:37:57;;;;;;;12.90;5.53;;;;;;;-0.15;71.92;98887.69;3191129;23;20021;-76
2022/03/05 17:39:13;;;;;;;9.70;5.70;;;;;;;-0.15;71.73;98889.41;3191664;23;20025;-79
2022/03/05 17:40:29;;;;;;;12.82;6.20;;;;;;;-0.16;71.46;98892.81;3191106;23;20091;-77
2022/03/05 17:41:45;;;;;;;15.90;6.82;;;;;;;-0.16;71.34;98888.50;3191548;23;20028;-78
2022/03/05 17:43:01;;;;;;;14.60;7.03;;;;;;;-0.19;72.08;98891.03;3191531;23;20028;-77
2022/03/05 17:44:17;;;;;;;16.13;6.85;;;;;;;-0.22;72.03;98893.53;3191181;23;20910;-77
2022/03/05 17:45:32;;;;;;;13.25;6.85;;;;;;;-0.23;71.72;98891.81;3191274;23;20021;-77
2022/03/05 17:46:48;;;;;;;11.45;6.35;;;;;;;-0.25;71.91;98890.03;3191393;23;20028;-77
2022/03/05 17:48:04;;;;;;;9.00;5.25;;;;;;;-0.28;72.35;98893.38;3191320;23;20020;-77
2022/03/05 17:49:19;;;;;;;12.68;5.72;;;;;;;-0.33;72.84;98895.00;3191738;23;20052;-77
2022/03/05 17:50:35;;;;;;;11.45;5.90;;;;;;;-0.35;72.82;98894.09;3191339;23;20024;-77
2022/03/05 17:51:52;;;;;;;12.30;4.80;;;;;;;-0.39;73.06;98897.44;3190964;23;20021;-77
2022/03/05 17:53:08;;;;;;;12.68;6.07;;;;;;;-0.41;72.74;98893.97;3191313;23;20017;-77
2022/03/05 17:54:24;;;;;;;12.88;6.32;;;;;;;-0.42;73.03;98905.94;3191732;23;20021;-76
2022/03/05 17:55:40;;;;;;;12.82;6.53;;;;;;;-0.42;72.84;98903.38;3191737;23;20025;-78
2022/03/05 17:56:56;;;;;;;15.93;6.57;;;;;;;-0.44;72.28;98902.47;3191307;23;20028;-76
2022/03/05 17:58:11;;;;;;;12.35;6.68;;;;;;;-0.41;71.93;98906.81;3191360;23;20498;-78
2022/03/05 17:59:27;;;;;;;15.52;6.88;;;;;;;-0.39;71.81;98912.88;3191399;23;20017;-76
2022/03/05 18:00:43;;;;;;;16.65;8.02;;;;;;;-0.43;72.15;98907.63;3191496;23;20784;-75
2022/03/05 18:02:00;;;;;;;16.13;7.32;;;;;;;-0.41;71.25;98904.25;3191827;23;20021;-76
2022/03/05 18:03:18;;;;;;;16.25;8.88;;;;;;;-0.41;71.55;98914.53;3191523;23;20536;-78
2022/03/05 18:04:34;;;;;;;18.23;8.45;;;;;;;-0.42;71.50;98911.09;3192047;23;20072;-75
2022/03/05 18:05:49;;;;;;;15.82;9.10;;;;;;;-0.44;71.35;98917.91;3191610;23;20946;-76
2022/03/05 18:07:05;;;;;;;16.50;8.82;;;;;;;-0.44;71.63;98910.19;3191299;23;20519;-77
2022/03/05 18:08:21;;;;;;;16.20;8.25;;;;;;;-0.46;71.83;98912.72;3191793;23;20048;-77
2022/03/05 18:09:37;;;;;;;17.90;7.72;;;;;;;-0.48;72.48;98922.09;3191535;23;20020;-76
2022/03/05 18:10:53;;;;;;;15.40;7.75;;;;;;;-0.46;71.64;98917.84;3191318;23;20021;-76
2022/03/05 18:12:09;;;;;;;15.15;7.70;;;;;;;-0.41;70.64;98917.13;3191616;23;20025;-77
2022/03/05 18:13:25;;;;;;;16.08;7.60;;;;;;;-0.37;70.16;98918.91;3175097;23;20125;-78
2022/03/05 18:14:41;;;;;;;18.55;7.75;;;;;;;-0.36;69.72;98923.22;3181780;23;20028;-76
2022/03/05 18:15:59;;;;;;;13.48;6.63;;;;;;;-0.35;69.49;98918.13;3192019;23;20024;-76
2022/03/05 18:17:15;;;;;;;15.88;7.40;;;;;;;-0.35;69.35;98920.69;3191830;23;20317;-77
2022/03/05 18:18:31;;;;;;;16.38;7.43;;;;;;;-0.34;69.27;98926.69;3191603;23;20028;-78
2022/03/05 18:19:46;;;;;;;16.25;7.10;;;;;;;-0.36;69.95;98926.66;3191714;23;20032;-76
2022/03/05 18:21:02;;;;;;;16.83;6.97;;;;;;;-0.41;70.42;98925.69;3191448;23;20025;-75
2022/03/05 18:22:17;;;;;;;12.80;7.10;;;;;;;-0.45;71.21;98929.03;3191927;23;20025;-76
2022/03/05 18:23:33;;;;;;;13.65;6.97;;;;;;;-0.50;71.39;98926.34;3191932;23;20799;-76
2022/03/05 18:24:50;;;;;;;12.25;6.45;;;;;;;-0.53;71.70;98922.81;3191709;23;20028;-78
2022/03/05 18:26:07;;;;;;;15.77;6.53;;;;;;;-0.57;71.67;98929.56;3191645;23;20048;-75
2022/03/05 18:27:23;;;;;;;15.20;7.65;;;;;;;-0.61;72.28;98925.19;3191436;23;20024;-75
2022/03/05 18:28:39;;;;;;;14.35;7.97;;;;;;;-0.62;72.67;98931.19;3201313;23;20024;-77
2022/03/05 18:29:54;;;;;;;22.17;10.30;;;;;;;-0.65;72.95;98933.69;3206917;23;20020;-76
2022/03/05 18:31:10;;;;;;;35.05;15.43;;;;;;;-0.68;72.97;98925.88;3207117;23;20447;-77
2022/03/05 18:32:28;;;;;;;33.28;15.48;;;;;;;-0.69;73.02;98925.00;3206670;23;20017;-76
2022/03/05 18:33:45;;;;;;;32.72;15.52;;;;;;;-0.71;73.12;98926.69;3206735;23;20100;-76
2022/03/05 18:35:00;;;;;;;26.10;12.15;;;;;;;-0.72;73.08;98924.94;3206723;23;20397;-76
2022/03/05 18:36:16;;;;;;;24.52;12.55;;;;;;;-0.71;72.64;98924.09;3206568;23;20318;-77
2022/03/05 18:37:33;;;;;;;24.00;10.38;;;;;;;-0.71;72.18;98924.09;3207149;23;20029;-76
2022/03/05 18:38:49;;;;;;;20.45;9.93;;;;;;;-0.69;71.55;98924.16;3206498;23;20106;-77
2022/03/05 18:40:07;;;;;;;16.30;8.20;;;;;;;-0.72;72.11;98927.50;3207041;23;20581;-78
2022/03/05 18:41:22;;;;;;;15.45;7.25;;;;;;;-0.73;71.83;98925.78;3207022;23;20017;-76
2022/03/05 18:42:38;;;;;;;20.02;8.48;;;;;;;-0.74;71.34;98922.31;3206556;23;20032;-77
2022/03/05 18:43:54;;;;;;;26.08;9.88;;;;;;;-0.74;71.06;98930.03;3207105;23;20070;-76
2022/03/05 18:45:09;;;;;;;27.42;10.60;;;;;;;-0.76;71.19;98920.56;3207039;23;20174;-77
2022/03/05 18:46:25;;;;;;;26.98;11.43;;;;;;;-0.79;71.42;98923.03;3206913;23;20017;-76
2022/03/05 18:47:42;;;;;;;29.73;10.02;;;;;;;-0.81;71.44;98929.84;3207203;23;20448;-76
2022/03/05 18:48:59;;;;;;;25.15;11.02;;;;;;;-0.82;71.37;98928.97;3206898;23;20336;-77
2022/03/05 18:50:16;;;;;;;21.13;9.43;;;;;;;-0.82;71.10;98922.97;3206772;23;20020;-77
2022/03/05 18:51:35;;;;;;;23.77;9.77;;;;;;;-0.83;70.97;98931.50;3206729;23;20095;-78
2022/03/05 18:52:50;;;;;;;19.65;8.80;;;;;;;-0.85;70.97;98931.44;3190393;23;20029;-80
2022/03/05 18:54:07;;;;;;;18.92;8.77;;;;;;;-0.82;70.52;98931.56;3196951;23;20044;-78
2022/03/05 18:55:22;;;;;;;19.02;8.43;;;;;;;-0.83;70.74;98931.50;3206959;23;20096;-79
2022/03/05 18:56:38;;;;;;;20.27;8.57;;;;;;;-0.85;71.09;98936.59;3207097;23;20020;-77
2022/03/05 18:57:54;;;;;;;16.27;7.55;;;;;;;-0.88;70.80;98937.41;3206365;23;20028;-76
2022/03/05 18:59:10;;;;;;;17.52;8.13;;;;;;;-0.92;71.26;98942.41;3206670;23;20524;-78
2022/03/05 19:00:26;;;;;;;17.23;8.38;;;;;;;-0.93;71.56;98941.53;3206948;23;20021;-77
2022/03/05 19:01:41;;;;;;;16.35;8.02;;;;;;;-0.95;71.37;98934.63;3207077;23;20052;-76
2022/03/05 19:02:57;;;;;;;17.77;7.97;;;;;;;-0.97;71.16;98938.88;3207014;23;20017;-78
2022/03/05 19:04:13;;;;;;;16.55;7.97;;;;;;;-1.00;71.61;98937.94;3207313;23;20021;-76
2022/03/05 19:05:29;;;;;;;16.30;7.93;;;;;;;-1.01;71.41;98943.06;3207462;23;20399;-76
2022/03/05 19:06:44;;;;;;;18.80;8.55;;;;;;;-1.04;71.78;98943.81;3206875;23;20020;-76
2022/03/05 19:08:00;;;;;;;14.45;7.80;;;;;;;-1.06;71.38;98950.63;3206888;23;20016;-76
2022/03/05 19:09:16;;;;;;;14.10;7.65;;;;;;;-1.07;71.34;98946.31;3206763;23;20017;-76
2022/03/05 19:10:31;;;;;;;18.30;8.05;;;;;;;-1.10;71.21;98945.38;3206907;23;20059;-76
2022/03/05 19:11:47;;;;;;;16.35;7.82;;;;;;;-1.11;71.58;98944.50;3206999;23;20017;-76
2022/03/05 19:13:03;;;;;;;15.00;7.47;;;;;;;-1.10;71.90;98953.06;3207114;23;20656;-76
2022/03/05 19:14:19;;;;;;;18.35;8.38;;;;;;;-1.12;71.64;98945.31;3206432;23;20089;-78
2022/03/05 19:15:34;;;;;;;15.27;7.93;;;;;;;-1.12;71.28;98947.88;3207114;23;20031;-78
2022/03/05 19:16:50;;;;;;;15.13;7.00;;;;;;;-1.12;71.86;98953.03;3207125;23;20063;-77
2022/03/05 19:18:06;;;;;;;17.10;7.70;;;;;;;-1.13;71.67;98948.72;3206734;23;20022;-78
2022/03/05 19:19:22;;;;;;;16.73;7.50;;;;;;;-1.10;71.24;98948.81;3206951;23;20466;-81
2022/03/05 19:20:38;;;;;;;14.35;7.00;;;;;;;-1.11;71.57;98948.75;3207185;23;20339;-78
2022/03/05 19:21:54;;;;;;;15.60;7.22;;;;;;;-1.10;71.42;98948.81;3206784;23;20016;-78
2022/03/05 19:23:10;;;;;;;14.43;7.55;;;;;;;-1.09;71.16;98950.56;3206986;23;20040;-78
2022/03/05 19:24:26;;;;;;;14.05;7.13;;;;;;;-1.08;71.08;98949.72;3206786;23;20016;-77
2022/03/05 19:25:42;;;;;;;15.00;6.57;;;;;;;-1.04;71.13;98953.25;3190164;23;20261;-78
2022/03/05 19:26:57;;;;;;;15.75;7.43;;;;;;;-1.03;71.18;98955.00;3197122;23;20046;-78
2022/03/05 19:28:13;;;;;;;13.70;6.88;;;;;;;-1.03;71.06;98950.72;3206638;23;20035;-78
2022/03/05 19:29:29;;;;;;;14.93;7.30;;;;;;;-1.01;70.70;98953.34;3207340;23;20020;-79
2022/03/05 19:30:44;;;;;;;14.77;7.93;;;;;;;-0.99;70.94;98949.09;3207068;23;20016;-80
2022/03/05 19:32:00;;;;;;;16.42;7.82;;;;;;;-0.98;70.32;98948.28;3207202;23;20017;-77
2022/03/05 19:33:16;;;;;;;17.50;7.85;;;;;;;-0.98;70.77;98948.28;3207564;23;20020;-76
2022/03/05 19:34:32;;;;;;;20.02;8.48;;;;;;;-0.97;70.59;98955.16;3207602;23;20029;-76
2022/03/05 19:35:48;;;;;;;21.38;10.27;;;;;;;-0.97;70.72;98947.44;3207758;23;20063;-78
2022/03/05 19:37:04;;;;;;;32.22;14.40;;;;;;;-0.96;70.55;98949.19;3210156;23;20047;-77
2022/03/05 19:38:19;;;;;;;32.28;15.50;;;;;;;-0.96;70.50;98956.03;3210888;23;20456;-77
2022/03/05 19:39:35;;;;;;;33.30;16.48;;;;;;;-0.93;70.59;98963.81;3210801;23;20407;-76
2022/03/05 19:40:50;;;;;;;29.55;15.38;;;;;;;-0.91;70.72;98962.16;3210672;23;20081;-79
2022/03/05 19:42:06;;;;;;;25.45;14.00;;;;;;;-0.91;70.95;98962.16;3207755;23;20024;-77
2022/03/05 19:43:22;;;;;;;20.75;12.23;;;;;;;-0.91;70.71;98962.16;3207070;23;20031;-77
2022/03/05 19:44:37;;;;;;;23.77;10.75;;;;;;;-0.92;70.67;98965.56;3206597;23;20317;-77
2022/03/05 19:45:53;;;;;;;17.88;9.85;;;;;;;-0.91;70.56;98962.16;3206740;23;20075;-77
2022/03/05 19:47:09;;;;;;;20.05;10.23;;;;;;;-0.90;70.46;98956.19;3206850;23;20325;-77
2022/03/05 19:48:25;;;;;;;19.02;10.07;;;;;;;-0.87;70.67;98956.25;3206405;23;20024;-77
2022/03/05 19:49:40;;;;;;;18.77;10.40;;;;;;;-0.88;70.39;98962.22;3206603;23;20640;-79
2022/03/05 19:50:56;;;;;;;17.92;9.18;;;;;;;-0.89;70.31;98957.91;3207218;23;20024;-77
2022/03/05 19:52:12;;;;;;;13.52;8.80;;;;;;;-0.90;70.71;98951.94;3206911;23;20240;-77
2022/03/05 19:53:27;;;;;;;15.30;8.80;;;;;;;-0.88;70.95;98949.38;3206809;23;20459;-77
2022/03/05 19:54:43;;;;;;;12.75;7.13;;;;;;;-0.89;70.66;98956.22;3206800;23;20032;-77
2022/03/05 19:55:59;;;;;;;15.65;7.70;;;;;;;-0.90;70.94;98956.19;3206790;23;20052;-77
2022/03/05 19:57:15;;;;;;;13.27;7.70;;;;;;;-0.89;70.42;98960.50;3206723;23;20044;-77
2022/03/05 19:58:31;;;;;;;13.07;6.88;;;;;;;-0.91;70.81;98959.59;3206481;23;20737;-77
2022/03/05 19:59:46;;;;;;;14.10;7.35;;;;;;;-0.93;71.47;98959.53;3206803;23;20020;-77
2022/03/05 20:01:03;;;;;;;12.30;6.82;;;;;;;-0.90;71.35;98962.19;3206476;23;20024;-77
2022/03/05 20:02:18;;;;;;;14.55;7.30;;;;;;;-0.88;71.19;98957.09;3206359;23;20052;-77
2022/03/05 20:03:34;;;;;;;13.52;6.85;;;;;;;-0.88;71.25;98960.53;3206608;23;20024;-77
2022/03/05 20:04:50;;;;;;;15.27;7.05;;;;;;;-0.87;71.63;98969.09;3206803;23;20029;-77
2022/03/05 20:06:05;;;;;;;15.15;7.00;;;;;;;-0.87;71.56;98967.41;3206211;23;20051;-78
2022/03/05 20:07:21;;;;;;;13.55;7.32;;;;;;;-0.87;71.55;98969.09;3206616;23;20104;-77
2022/03/05 20:08:37;;;;;;;15.30;7.38;;;;;;;-0.87;71.69;98964.84;3206533;23;20379;-77
2022/03/05 20:09:52;;;;;;;16.65;7.72;;;;;;;-0.85;71.28;98964.88;3206487;23;20035;-77
2022/03/05 20:11:08;;;;;;;17.08;8.07;;;;;;;-0.83;72.04;98968.38;3206459;23;20021;-77
2022/03/05 20:12:23;;;;;;;14.82;8.05;;;;;;;-0.84;71.86;98966.59;3206454;23;20027;-77
2022/03/05 20:13:39;;;;;;;19.00;7.38;;;;;;;-0.84;72.39;98965.75;3206361;23;20454;-78
2022/03/05 20:14:55;;;;;;;17.13;7.78;;;;;;;-0.84;72.10;98966.59;3206527;23;20027;-77
2022/03/05 20:16:11;;;;;;;14.70;7.72;;;;;;;-0.83;71.62;98973.53;3206565;23;20028;-78
2022/03/05 20:17:26;;;;;;;18.23;7.22;;;;;;;-0.87;71.64;98974.25;3206572;23;20016;-77
2022/03/05 20:18:43;;;;;;;18.88;7.60;;;;;;;-0.90;72.09;98972.50;3206254;23;20020;-78
2022/03/05 20:19:58;;;;;;;15.60;8.05;;;;;;;-0.92;71.46;98975.84;3206543;23;20039;-77
2022/03/05 20:21:14;;;;;;;12.13;7.47;;;;;;;-0.91;71.56;98975.00;3206129;23;20371;-77
2022/03/05 20:22:29;;;;;;;12.93;7.20;;;;;;;-0.91;71.67;98975.00;3206907;23;20079;-77